SIA529 VOMM-WSSS
Flight info
| Callsign | SIA529 |
|---|---|
| Flight time | 3h 44m |
| Altitude | 37000 |
| Route | IDASO2A IDASO N571 BIKEN/N0486F390 N571 GUNIP R467 VKL A464 ARAMA DCT TEBUN TEBUN1B |
| Aircraft | B77W/H-SDE1E2E3FGHIJ4J5M1P2RWXYZ/LB1D1 |
Departure
| Time | 2026-05-07 17:54 |
|---|---|
| Airport | Chennai International Airport (VOMM) |
Arrival
| Time | 2026-05-07 21:39 |
|---|---|
| Airport | Singapore Changi Airport (WSSS) |
| Time | Latitude | Longitude | Altitude | Speed | Heading |
|---|---|---|---|---|---|
| 2026-05-07 17:25 | 12.98458 | 80.16259 | 52 ft | 0 kts | 335° |
| 2026-05-07 17:47 | 12.98442 | 80.16268 | 46 ft | 4 kts | 318° |
| 2026-05-07 17:47 | 12.98427 | 80.16290 | 50 ft | 4 kts | 281° |
| 2026-05-07 17:47 | 12.98427 | 80.16316 | 47 ft | 4 kts | 255° |
| 2026-05-07 17:47 | 12.98432 | 80.16333 | 46 ft | 0 kts | 249° |
| 2026-05-07 17:49 | 12.98430 | 80.16328 | 46 ft | 4 kts | 249° |
| 2026-05-07 17:50 | 12.98414 | 80.16283 | 47 ft | 7 kts | 251° |
| 2026-05-07 17:50 | 12.98396 | 80.16232 | 47 ft | 8 kts | 248° |
| 2026-05-07 17:50 | 12.98376 | 80.16176 | 48 ft | 9 kts | 250° |
| 2026-05-07 17:50 | 12.98352 | 80.16111 | 50 ft | 10 kts | 250° |
| 2026-05-07 17:51 | 12.98328 | 80.16044 | 48 ft | 10 kts | 250° |
| 2026-05-07 17:51 | 12.98303 | 80.15976 | 48 ft | 10 kts | 250° |
| 2026-05-07 17:51 | 12.98292 | 80.15904 | 52 ft | 11 kts | 279° |
| 2026-05-07 17:51 | 12.98311 | 80.15831 | 48 ft | 11 kts | 288° |
| 2026-05-07 17:52 | 12.98333 | 80.15758 | 48 ft | 11 kts | 287° |
| 2026-05-07 17:52 | 12.98354 | 80.15685 | 49 ft | 11 kts | 286° |
| 2026-05-07 17:52 | 12.98372 | 80.15611 | 48 ft | 11 kts | 282° |
| 2026-05-07 17:52 | 12.98390 | 80.15537 | 47 ft | 11 kts | 284° |
| 2026-05-07 17:53 | 12.98410 | 80.15464 | 48 ft | 11 kts | 279° |
| 2026-05-07 17:53 | 12.98400 | 80.15389 | 49 ft | 11 kts | 250° |
| 2026-05-07 17:53 | 12.98429 | 80.15348 | 47 ft | 8 kts | 18° |
| 2026-05-07 17:53 | 12.98454 | 80.15400 | 49 ft | 9 kts | 68° |
| 2026-05-07 17:54 | 12.98533 | 80.15609 | 47 ft | 68 kts | 69° |
| 2026-05-07 17:54 | 12.98799 | 80.16320 | 53 ft | 143 kts | 69° |
| 2026-05-07 17:54 | 12.99180 | 80.17468 | 230 ft | 184 kts | 72° |
| 2026-05-07 17:54 | 12.99598 | 80.18671 | 1072 ft | 174 kts | 71° |
| 2026-05-07 17:55 | 12.99944 | 80.19866 | 1708 ft | 181 kts | 77° |
| 2026-05-07 17:55 | 13.00252 | 80.21199 | 1999 ft | 204 kts | 77° |
| 2026-05-07 17:55 | 13.00573 | 80.22710 | 2281 ft | 231 kts | 78° |
| 2026-05-07 17:55 | 13.00917 | 80.24404 | 2724 ft | 250 kts | 78° |
| 2026-05-07 17:56 | 13.01275 | 80.26170 | 3496 ft | 256 kts | 78° |
| 2026-05-07 17:56 | 13.01640 | 80.27965 | 4354 ft | 259 kts | 78° |
| 2026-05-07 17:56 | 13.02011 | 80.29791 | 5163 ft | 264 kts | 77° |
| 2026-05-07 17:56 | 13.02389 | 80.31645 | 5963 ft | 268 kts | 77° |
| 2026-05-07 17:57 | 13.02774 | 80.33534 | 6732 ft | 273 kts | 77° |
| 2026-05-07 17:57 | 13.03033 | 80.34801 | 7240 ft | 275 kts | 76° |
| 2026-05-07 17:57 | 13.03559 | 80.37384 | 8284 ft | 279 kts | 76° |
| 2026-05-07 17:57 | 13.03958 | 80.39344 | 9035 ft | 283 kts | 76° |
| 2026-05-07 17:58 | 13.04364 | 80.41334 | 9774 ft | 288 kts | 76° |
| 2026-05-07 17:58 | 13.04779 | 80.43371 | 10342 ft | 299 kts | 76° |
| 2026-05-07 17:58 | 13.05225 | 80.45550 | 10526 ft | 325 kts | 77° |
| 2026-05-07 17:58 | 13.05706 | 80.47909 | 10717 ft | 351 kts | 77° |
| 2026-05-07 17:59 | 13.06220 | 80.50432 | 11032 ft | 370 kts | 77° |
| 2026-05-07 17:59 | 13.06752 | 80.53056 | 11662 ft | 380 kts | 77° |
| 2026-05-07 17:59 | 13.07294 | 80.55731 | 12523 ft | 384 kts | 77° |
| 2026-05-07 17:59 | 13.07839 | 80.58426 | 13428 ft | 389 kts | 78° |
| 2026-05-07 18:00 | 13.08396 | 80.61172 | 14074 ft | 398 kts | 78° |
| 2026-05-07 18:00 | 13.08964 | 80.63980 | 14724 ft | 406 kts | 78° |
| 2026-05-07 18:00 | 13.09543 | 80.66837 | 15385 ft | 413 kts | 78° |
| 2026-05-07 18:00 | 13.10131 | 80.69743 | 16042 ft | 420 kts | 78° |
| 2026-05-07 18:01 | 13.10729 | 80.72700 | 16651 ft | 428 kts | 78° |
| 2026-05-07 18:01 | 13.11329 | 80.75666 | 17314 ft | 433 kts | 79° |
| 2026-05-07 18:01 | 13.11946 | 80.78716 | 17919 ft | 441 kts | 79° |
| 2026-05-07 18:01 | 13.12501 | 80.81826 | 18522 ft | 445 kts | 83° |
| 2026-05-07 18:02 | 13.12659 | 80.88180 | 19786 ft | 449 kts | 96° |
| 2026-05-07 18:02 | 13.12385 | 80.91369 | 20433 ft | 450 kts | 96° |
| 2026-05-07 18:02 | 13.12094 | 80.94579 | 21035 ft | 453 kts | 96° |
| 2026-05-07 18:03 | 13.11800 | 80.97806 | 21640 ft | 456 kts | 96° |
| 2026-05-07 18:03 | 13.11509 | 81.01058 | 22253 ft | 459 kts | 96° |
| 2026-05-07 18:03 | 13.11223 | 81.04329 | 22809 ft | 462 kts | 96° |
| 2026-05-07 18:03 | 13.10940 | 81.07625 | 23374 ft | 466 kts | 96° |
| 2026-05-07 18:04 | 13.10659 | 81.10947 | 23831 ft | 468 kts | 96° |
| 2026-05-07 18:04 | 13.10377 | 81.14282 | 24288 ft | 471 kts | 96° |
| 2026-05-07 18:04 | 13.10095 | 81.17640 | 24731 ft | 474 kts | 96° |
| 2026-05-07 18:04 | 13.09811 | 81.21014 | 25170 ft | 476 kts | 96° |
| 2026-05-07 18:05 | 13.09524 | 81.24413 | 25602 ft | 479 kts | 96° |
| 2026-05-07 18:05 | 13.09235 | 81.27828 | 26019 ft | 482 kts | 97° |
| 2026-05-07 18:05 | 13.08944 | 81.31265 | 26422 ft | 486 kts | 96° |
| 2026-05-07 18:05 | 13.08649 | 81.34728 | 26822 ft | 489 kts | 96° |
| 2026-05-07 18:06 | 13.08353 | 81.38209 | 27230 ft | 491 kts | 96° |
| 2026-05-07 18:06 | 13.08055 | 81.41708 | 27624 ft | 494 kts | 96° |
| 2026-05-07 18:06 | 13.07755 | 81.45221 | 28015 ft | 496 kts | 97° |
| 2026-05-07 18:06 | 13.07452 | 81.48756 | 28378 ft | 499 kts | 96° |
| 2026-05-07 18:07 | 13.07148 | 81.52308 | 28717 ft | 501 kts | 97° |
| 2026-05-07 18:07 | 13.06842 | 81.55878 | 29049 ft | 504 kts | 97° |
| 2026-05-07 18:07 | 13.06534 | 81.59461 | 29369 ft | 506 kts | 96° |
| 2026-05-07 18:07 | 13.06224 | 81.63064 | 29671 ft | 508 kts | 97° |
| 2026-05-07 18:08 | 13.05912 | 81.66680 | 29998 ft | 509 kts | 96° |
| 2026-05-07 18:08 | 13.05601 | 81.70292 | 30365 ft | 508 kts | 97° |
| 2026-05-07 18:08 | 13.05290 | 81.73894 | 30785 ft | 506 kts | 96° |
| 2026-05-07 18:08 | 13.04979 | 81.77479 | 31198 ft | 504 kts | 96° |
| 2026-05-07 18:09 | 13.04670 | 81.81054 | 31603 ft | 503 kts | 96° |
| 2026-05-07 18:09 | 13.04360 | 81.84620 | 31991 ft | 502 kts | 96° |
| 2026-05-07 18:09 | 13.04049 | 81.88181 | 32384 ft | 501 kts | 97° |
| 2026-05-07 18:09 | 13.03740 | 81.91729 | 32786 ft | 499 kts | 96° |
| 2026-05-07 18:10 | 13.03434 | 81.95226 | 33168 ft | 498 kts | 96° |
| 2026-05-07 18:10 | 13.03121 | 81.98805 | 33584 ft | 497 kts | 96° |
| 2026-05-07 18:10 | 13.02817 | 82.02281 | 33949 ft | 496 kts | 96° |
| 2026-05-07 18:10 | 13.02508 | 82.05799 | 34292 ft | 495 kts | 97° |
| 2026-05-07 18:11 | 13.02200 | 82.09307 | 34638 ft | 494 kts | 96° |
| 2026-05-07 18:11 | 13.01991 | 82.11675 | 34848 ft | 493 kts | 96° |
| 2026-05-07 18:11 | 13.01583 | 82.16307 | 35293 ft | 492 kts | 97° |
| 2026-05-07 18:11 | 13.01274 | 82.19801 | 35598 ft | 491 kts | 96° |
| 2026-05-07 18:12 | 13.00967 | 82.23279 | 35941 ft | 489 kts | 96° |
| 2026-05-07 18:12 | 13.00660 | 82.26749 | 36293 ft | 488 kts | 96° |
| 2026-05-07 18:12 | 13.00353 | 82.30208 | 36611 ft | 487 kts | 97° |
| 2026-05-07 18:12 | 13.00046 | 82.33663 | 36792 ft | 489 kts | 96° |
| 2026-05-07 18:13 | 12.99725 | 82.37141 | 36834 ft | 491 kts | 98° |
| 2026-05-07 18:13 | 12.98339 | 82.43950 | 36850 ft | 485 kts | 108° |
| 2026-05-07 18:14 | 12.96393 | 82.50556 | 36848 ft | 483 kts | 108° |
| 2026-05-07 18:14 | 12.94457 | 82.57142 | 36853 ft | 482 kts | 108° |
| 2026-05-07 18:15 | 12.92555 | 82.63720 | 36849 ft | 482 kts | 108° |
| 2026-05-07 18:15 | 12.90663 | 82.70311 | 36855 ft | 482 kts | 108° |
| 2026-05-07 18:16 | 12.88769 | 82.76909 | 36857 ft | 483 kts | 108° |
| 2026-05-07 18:16 | 12.86868 | 82.83518 | 36856 ft | 484 kts | 108° |
| 2026-05-07 18:17 | 12.84961 | 82.90138 | 36853 ft | 484 kts | 108° |
| 2026-05-07 18:17 | 12.83051 | 82.96760 | 36853 ft | 485 kts | 108° |
| 2026-05-07 18:18 | 12.81140 | 83.03381 | 36851 ft | 485 kts | 108° |
| 2026-05-07 18:18 | 12.79228 | 83.09999 | 36852 ft | 484 kts | 108° |
| 2026-05-07 18:19 | 12.77314 | 83.16615 | 36851 ft | 484 kts | 108° |
| 2026-05-07 18:19 | 12.75400 | 83.23225 | 36854 ft | 484 kts | 108° |
| 2026-05-07 18:20 | 12.73487 | 83.29828 | 36854 ft | 484 kts | 108° |
| 2026-05-07 18:20 | 12.71584 | 83.36388 | 36856 ft | 483 kts | 108° |
| 2026-05-07 18:21 | 12.69668 | 83.42983 | 36855 ft | 483 kts | 108° |
| 2026-05-07 18:21 | 12.67750 | 83.49584 | 36854 ft | 483 kts | 107° |
| 2026-05-07 18:22 | 12.65720 | 83.56135 | 36852 ft | 482 kts | 112° |
| 2026-05-07 18:22 | 12.62863 | 83.62329 | 36860 ft | 481 kts | 117° |
| 2026-05-07 18:23 | 12.59861 | 83.68447 | 36854 ft | 481 kts | 117° |
| 2026-05-07 18:23 | 12.56876 | 83.74577 | 36855 ft | 481 kts | 117° |
| 2026-05-07 18:24 | 12.53915 | 83.80712 | 36856 ft | 481 kts | 117° |
| 2026-05-07 18:24 | 12.51458 | 83.85814 | 36855 ft | 481 kts | 117° |
| 2026-05-07 18:25 | 12.48501 | 83.91955 | 36852 ft | 481 kts | 117° |
| 2026-05-07 18:25 | 12.45542 | 83.98090 | 36855 ft | 481 kts | 117° |
| 2026-05-07 18:26 | 12.42582 | 84.04223 | 36856 ft | 480 kts | 117° |
| 2026-05-07 18:26 | 12.39622 | 84.10351 | 36854 ft | 480 kts | 117° |
| 2026-05-07 18:27 | 12.36662 | 84.16475 | 36856 ft | 480 kts | 117° |
| 2026-05-07 18:27 | 12.33702 | 84.22595 | 36853 ft | 480 kts | 117° |
| 2026-05-07 18:28 | 12.30741 | 84.28712 | 36855 ft | 480 kts | 117° |
| 2026-05-07 18:28 | 12.27778 | 84.34828 | 36855 ft | 480 kts | 117° |
| 2026-05-07 18:29 | 12.24817 | 84.40939 | 36849 ft | 479 kts | 117° |
| 2026-05-07 18:29 | 12.21856 | 84.47044 | 36852 ft | 479 kts | 117° |
| 2026-05-07 18:30 | 12.18892 | 84.53149 | 36853 ft | 479 kts | 117° |
| 2026-05-07 18:30 | 12.15929 | 84.59250 | 36853 ft | 479 kts | 117° |
| 2026-05-07 18:31 | 12.12965 | 84.65350 | 36854 ft | 479 kts | 117° |
| 2026-05-07 18:31 | 12.09999 | 84.71448 | 36851 ft | 479 kts | 117° |
| 2026-05-07 18:32 | 12.07052 | 84.77503 | 36848 ft | 479 kts | 117° |
| 2026-05-07 18:32 | 12.04087 | 84.83593 | 36849 ft | 479 kts | 117° |
| 2026-05-07 18:33 | 12.01122 | 84.89677 | 36851 ft | 478 kts | 117° |
| 2026-05-07 18:33 | 11.98155 | 84.95760 | 36852 ft | 478 kts | 117° |
| 2026-05-07 18:34 | 11.95192 | 85.01834 | 36846 ft | 478 kts | 117° |
| 2026-05-07 18:34 | 11.92230 | 85.07900 | 36849 ft | 477 kts | 117° |
| 2026-05-07 18:35 | 11.89270 | 85.13959 | 36848 ft | 477 kts | 117° |
| 2026-05-07 18:35 | 11.86310 | 85.20014 | 36849 ft | 476 kts | 117° |
| 2026-05-07 18:36 | 11.83349 | 85.26066 | 36851 ft | 476 kts | 117° |
| 2026-05-07 18:36 | 11.80386 | 85.32117 | 36849 ft | 477 kts | 117° |
| 2026-05-07 18:37 | 11.77422 | 85.38168 | 36847 ft | 477 kts | 117° |
| 2026-05-07 18:37 | 11.74456 | 85.44219 | 36856 ft | 477 kts | 117° |
| 2026-05-07 18:38 | 11.71485 | 85.50275 | 36848 ft | 477 kts | 117° |
| 2026-05-07 18:38 | 11.68513 | 85.56331 | 36849 ft | 477 kts | 117° |
| 2026-05-07 18:39 | 11.65539 | 85.62386 | 36852 ft | 478 kts | 117° |
| 2026-05-07 18:39 | 11.62562 | 85.68445 | 36849 ft | 478 kts | 117° |
| 2026-05-07 18:40 | 11.59583 | 85.74503 | 36850 ft | 478 kts | 117° |
| 2026-05-07 18:40 | 11.56621 | 85.80522 | 36849 ft | 478 kts | 117° |
| 2026-05-07 18:41 | 11.53640 | 85.86576 | 36852 ft | 478 kts | 117° |
| 2026-05-07 18:41 | 11.50656 | 85.92632 | 36848 ft | 478 kts | 117° |
| 2026-05-07 18:42 | 11.47672 | 85.98685 | 36847 ft | 478 kts | 117° |
| 2026-05-07 18:42 | 11.44688 | 86.04735 | 36849 ft | 478 kts | 117° |
| 2026-05-07 18:43 | 11.41702 | 86.10783 | 36849 ft | 478 kts | 117° |
| 2026-05-07 18:43 | 11.38717 | 86.16827 | 36850 ft | 477 kts | 117° |
| 2026-05-07 18:44 | 11.35730 | 86.22871 | 36849 ft | 478 kts | 117° |
| 2026-05-07 18:44 | 11.32737 | 86.28923 | 36850 ft | 478 kts | 117° |
| 2026-05-07 18:45 | 11.29743 | 86.34972 | 36851 ft | 479 kts | 117° |
| 2026-05-07 18:45 | 11.26744 | 86.41028 | 36848 ft | 479 kts | 117° |
| 2026-05-07 18:46 | 11.23747 | 86.47078 | 36846 ft | 478 kts | 117° |
| 2026-05-07 18:46 | 11.20749 | 86.53124 | 36847 ft | 478 kts | 117° |
| 2026-05-07 18:47 | 11.17752 | 86.59167 | 36843 ft | 478 kts | 117° |
| 2026-05-07 18:47 | 11.14753 | 86.65208 | 36845 ft | 478 kts | 117° |
| 2026-05-07 18:48 | 11.11753 | 86.71249 | 36847 ft | 478 kts | 117° |
| 2026-05-07 18:48 | 11.08749 | 86.77292 | 36847 ft | 478 kts | 117° |
| 2026-05-07 18:49 | 11.05744 | 86.83335 | 36849 ft | 479 kts | 117° |
| 2026-05-07 18:49 | 11.02756 | 86.89341 | 36846 ft | 479 kts | 117° |
| 2026-05-07 18:50 | 10.99745 | 86.95387 | 36845 ft | 479 kts | 117° |
| 2026-05-07 18:50 | 10.96735 | 87.01430 | 36843 ft | 479 kts | 117° |
| 2026-05-07 18:51 | 10.93720 | 87.07479 | 36845 ft | 479 kts | 117° |
| 2026-05-07 18:51 | 10.90705 | 87.13524 | 36850 ft | 479 kts | 117° |
| 2026-05-07 18:52 | 10.87691 | 87.19562 | 36846 ft | 478 kts | 117° |
| 2026-05-07 18:52 | 10.84680 | 87.25592 | 36846 ft | 478 kts | 117° |
| 2026-05-07 18:53 | 10.81672 | 87.31612 | 36846 ft | 477 kts | 117° |
| 2026-05-07 18:53 | 10.78662 | 87.37632 | 36844 ft | 477 kts | 117° |
| 2026-05-07 18:54 | 10.75655 | 87.43644 | 36847 ft | 477 kts | 117° |
| 2026-05-07 18:54 | 10.72644 | 87.49660 | 36847 ft | 477 kts | 117° |
| 2026-05-07 18:55 | 10.69630 | 87.55678 | 36847 ft | 478 kts | 117° |
| 2026-05-07 18:55 | 10.66612 | 87.61700 | 36847 ft | 478 kts | 117° |
| 2026-05-07 18:56 | 10.63593 | 87.67720 | 36850 ft | 478 kts | 117° |
| 2026-05-07 18:56 | 10.60569 | 87.73747 | 36843 ft | 479 kts | 117° |
| 2026-05-07 18:57 | 10.57561 | 87.79740 | 36847 ft | 479 kts | 117° |
| 2026-05-07 18:57 | 10.54510 | 87.85815 | 36856 ft | 479 kts | 117° |
| 2026-05-07 18:58 | 10.51480 | 87.91844 | 36846 ft | 479 kts | 117° |
| 2026-05-07 18:58 | 10.48475 | 87.97820 | 36849 ft | 478 kts | 117° |
| 2026-05-07 18:59 | 10.45451 | 88.03829 | 36851 ft | 477 kts | 117° |
| 2026-05-07 18:59 | 10.42431 | 88.09829 | 36829 ft | 477 kts | 117° |
| 2026-05-07 19:00 | 10.39414 | 88.15819 | 36846 ft | 476 kts | 117° |
| 2026-05-07 19:00 | 10.36394 | 88.21811 | 36848 ft | 477 kts | 117° |
| 2026-05-07 19:01 | 10.33370 | 88.27807 | 36849 ft | 477 kts | 117° |
| 2026-05-07 19:01 | 10.30344 | 88.33806 | 36844 ft | 477 kts | 117° |
| 2026-05-07 19:02 | 10.27315 | 88.39806 | 36847 ft | 478 kts | 117° |
| 2026-05-07 19:02 | 10.24281 | 88.45813 | 36846 ft | 478 kts | 117° |
| 2026-05-07 19:03 | 10.21244 | 88.51825 | 36842 ft | 479 kts | 117° |
| 2026-05-07 19:03 | 10.18301 | 88.57888 | 36853 ft | 479 kts | 114° |
| 2026-05-07 19:04 | 10.15525 | 88.64031 | 36834 ft | 479 kts | 114° |
| 2026-05-07 19:04 | 10.12758 | 88.70171 | 36831 ft | 478 kts | 114° |
| 2026-05-07 19:05 | 10.09965 | 88.76298 | 36846 ft | 478 kts | 114° |
| 2026-05-07 19:05 | 10.07161 | 88.82409 | 36847 ft | 478 kts | 114° |
| 2026-05-07 19:06 | 10.04353 | 88.88518 | 36850 ft | 477 kts | 114° |
| 2026-05-07 19:06 | 10.00166 | 88.97625 | 36848 ft | 476 kts | 114° |
| 2026-05-07 19:07 | 9.97365 | 89.03715 | 36848 ft | 476 kts | 114° |
| 2026-05-07 19:07 | 9.94565 | 89.09799 | 36835 ft | 476 kts | 114° |
| 2026-05-07 19:08 | 9.91767 | 89.15877 | 36832 ft | 476 kts | 114° |
| 2026-05-07 19:08 | 9.88966 | 89.21957 | 36845 ft | 476 kts | 114° |
| 2026-05-07 19:09 | 9.86162 | 89.28040 | 36835 ft | 476 kts | 114° |
| 2026-05-07 19:09 | 9.83352 | 89.34131 | 36845 ft | 478 kts | 114° |
| 2026-05-07 19:10 | 9.80533 | 89.40241 | 36850 ft | 479 kts | 114° |
| 2026-05-07 19:10 | 9.77707 | 89.46363 | 36834 ft | 480 kts | 114° |
| 2026-05-07 19:11 | 9.74893 | 89.52453 | 36832 ft | 481 kts | 114° |
| 2026-05-07 19:11 | 9.72053 | 89.58597 | 36832 ft | 481 kts | 114° |
| 2026-05-07 19:12 | 9.69213 | 89.64738 | 36850 ft | 481 kts | 114° |
| 2026-05-07 19:12 | 9.66370 | 89.70879 | 36830 ft | 481 kts | 114° |
| 2026-05-07 19:13 | 9.63531 | 89.77012 | 36831 ft | 481 kts | 114° |
| 2026-05-07 19:13 | 9.60692 | 89.83140 | 36831 ft | 480 kts | 114° |
| 2026-05-07 19:14 | 9.57873 | 89.89222 | 36834 ft | 480 kts | 114° |
| 2026-05-07 19:14 | 9.55037 | 89.95337 | 36835 ft | 479 kts | 114° |
| 2026-05-07 19:15 | 9.52201 | 90.01448 | 36835 ft | 479 kts | 114° |
| 2026-05-07 19:15 | 9.49364 | 90.07558 | 36839 ft | 479 kts | 114° |
| 2026-05-07 19:16 | 9.47008 | 90.12632 | 36834 ft | 479 kts | 114° |
| 2026-05-07 19:16 | 9.44172 | 90.18733 | 36834 ft | 478 kts | 114° |
| 2026-05-07 19:17 | 9.41343 | 90.24816 | 36830 ft | 477 kts | 114° |
| 2026-05-07 19:17 | 9.38065 | 90.31862 | 36831 ft | 475 kts | 114° |
| 2026-05-07 19:18 | 9.35704 | 90.36933 | 36834 ft | 475 kts | 114° |
| 2026-05-07 19:18 | 9.32891 | 90.42973 | 36828 ft | 475 kts | 114° |
| 2026-05-07 19:19 | 9.30092 | 90.48980 | 36834 ft | 475 kts | 114° |
| 2026-05-07 19:19 | 9.27270 | 90.55034 | 36830 ft | 476 kts | 114° |
| 2026-05-07 19:20 | 9.24440 | 90.61102 | 36831 ft | 477 kts | 114° |
| 2026-05-07 19:20 | 9.21606 | 90.67174 | 36833 ft | 478 kts | 114° |
| 2026-05-07 19:21 | 9.18767 | 90.73254 | 36833 ft | 478 kts | 114° |
| 2026-05-07 19:21 | 9.15942 | 90.79301 | 36832 ft | 478 kts | 114° |
| 2026-05-07 19:22 | 9.13098 | 90.85385 | 36829 ft | 478 kts | 114° |
| 2026-05-07 19:22 | 9.10255 | 90.91465 | 36829 ft | 478 kts | 114° |
| 2026-05-07 19:23 | 9.07410 | 90.97546 | 36829 ft | 478 kts | 114° |
| 2026-05-07 19:23 | 9.04566 | 91.03621 | 36833 ft | 478 kts | 114° |
| 2026-05-07 19:24 | 9.01722 | 91.09691 | 36831 ft | 477 kts | 114° |
| 2026-05-07 19:24 | 8.98879 | 91.15758 | 36828 ft | 477 kts | 114° |
| 2026-05-07 19:25 | 8.96036 | 91.21822 | 36833 ft | 477 kts | 114° |
| 2026-05-07 19:25 | 8.93192 | 91.27886 | 36830 ft | 477 kts | 114° |
| 2026-05-07 19:26 | 8.90348 | 91.33946 | 36829 ft | 477 kts | 114° |
| 2026-05-07 19:26 | 8.87500 | 91.40011 | 36830 ft | 477 kts | 114° |
| 2026-05-07 19:27 | 8.84652 | 91.46072 | 36829 ft | 477 kts | 114° |
| 2026-05-07 19:27 | 8.81823 | 91.52092 | 36831 ft | 478 kts | 114° |
| 2026-05-07 19:28 | 8.78970 | 91.58159 | 36829 ft | 478 kts | 114° |
| 2026-05-07 19:28 | 8.76115 | 91.64227 | 36831 ft | 478 kts | 114° |
| 2026-05-07 19:29 | 8.73257 | 91.70298 | 36830 ft | 478 kts | 114° |
| 2026-05-07 19:29 | 8.70398 | 91.76369 | 36830 ft | 478 kts | 114° |
| 2026-05-07 19:30 | 8.67538 | 91.82440 | 36826 ft | 478 kts | 114° |
| 2026-05-07 19:30 | 8.64677 | 91.88509 | 36832 ft | 478 kts | 114° |
| 2026-05-07 19:31 | 8.61836 | 91.94535 | 36828 ft | 478 kts | 115° |
| 2026-05-07 19:31 | 8.58974 | 92.00609 | 36828 ft | 479 kts | 114° |
| 2026-05-07 19:32 | 8.56228 | 92.06734 | 36827 ft | 479 kts | 113° |
| 2026-05-07 19:32 | 8.53534 | 92.12885 | 36827 ft | 479 kts | 113° |
| 2026-05-07 19:33 | 8.50827 | 92.19037 | 36830 ft | 479 kts | 113° |
| 2026-05-07 19:33 | 8.48108 | 92.25180 | 36823 ft | 479 kts | 113° |
| 2026-05-07 19:34 | 8.45380 | 92.31326 | 36818 ft | 480 kts | 114° |
| 2026-05-07 19:34 | 8.42649 | 92.37475 | 36828 ft | 480 kts | 114° |
| 2026-05-07 19:35 | 8.39933 | 92.43588 | 36825 ft | 481 kts | 114° |
| 2026-05-07 19:35 | 8.37197 | 92.49745 | 36824 ft | 481 kts | 114° |
| 2026-05-07 19:36 | 8.34455 | 92.55913 | 36824 ft | 481 kts | 114° |
| 2026-05-07 19:36 | 8.31713 | 92.62079 | 36830 ft | 482 kts | 114° |
| 2026-05-07 19:37 | 8.28968 | 92.68247 | 36826 ft | 481 kts | 114° |
| 2026-05-07 19:37 | 8.26225 | 92.74409 | 36824 ft | 481 kts | 114° |
| 2026-05-07 19:38 | 8.23482 | 92.80566 | 36824 ft | 480 kts | 114° |
| 2026-05-07 19:38 | 8.20744 | 92.86710 | 36826 ft | 480 kts | 114° |
| 2026-05-07 19:39 | 8.18006 | 92.92850 | 36823 ft | 479 kts | 114° |
| 2026-05-07 19:39 | 8.15287 | 92.98945 | 36824 ft | 479 kts | 114° |
| 2026-05-07 19:40 | 8.12552 | 93.05074 | 36824 ft | 479 kts | 114° |
| 2026-05-07 19:40 | 8.09814 | 93.11205 | 36821 ft | 479 kts | 114° |
| 2026-05-07 19:41 | 8.07073 | 93.17343 | 36822 ft | 480 kts | 114° |
| 2026-05-07 19:41 | 8.04328 | 93.23484 | 36821 ft | 480 kts | 114° |
| 2026-05-07 19:42 | 8.01583 | 93.29625 | 36822 ft | 480 kts | 114° |
| 2026-05-07 19:42 | 7.98853 | 93.35728 | 36822 ft | 481 kts | 114° |
| 2026-05-07 19:43 | 7.96102 | 93.41875 | 36827 ft | 481 kts | 114° |
| 2026-05-07 19:43 | 7.93345 | 93.48035 | 36977 ft | 484 kts | 114° |
| 2026-05-07 19:44 | 7.91965 | 93.51120 | 37298 ft | 482 kts | 114° |
| 2026-05-07 19:44 | 7.90595 | 93.54199 | 37688 ft | 480 kts | 114° |
| 2026-05-07 19:44 | 7.89237 | 93.57263 | 38056 ft | 477 kts | 114° |
| 2026-05-07 19:44 | 7.87888 | 93.60313 | 38384 ft | 476 kts | 114° |
| 2026-05-07 19:45 | 7.86539 | 93.63358 | 38636 ft | 475 kts | 114° |
| 2026-05-07 19:45 | 7.85188 | 93.66409 | 38748 ft | 477 kts | 114° |
| 2026-05-07 19:45 | 7.82477 | 93.72524 | 38813 ft | 477 kts | 114° |
| 2026-05-07 19:46 | 7.79772 | 93.78616 | 38815 ft | 475 kts | 114° |
| 2026-05-07 19:46 | 7.77080 | 93.84677 | 38826 ft | 473 kts | 114° |
| 2026-05-07 19:47 | 7.74417 | 93.90670 | 38823 ft | 471 kts | 114° |
| 2026-05-07 19:47 | 7.71741 | 93.96692 | 38818 ft | 470 kts | 114° |
| 2026-05-07 19:48 | 7.69070 | 94.02698 | 38824 ft | 470 kts | 114° |
| 2026-05-07 19:48 | 7.66396 | 94.08709 | 38823 ft | 470 kts | 114° |
| 2026-05-07 19:49 | 7.63719 | 94.14723 | 38823 ft | 471 kts | 114° |
| 2026-05-07 19:49 | 7.61037 | 94.20747 | 38822 ft | 471 kts | 114° |
| 2026-05-07 19:50 | 7.58350 | 94.26780 | 38813 ft | 472 kts | 114° |
| 2026-05-07 19:50 | 7.55662 | 94.32812 | 38824 ft | 472 kts | 114° |
| 2026-05-07 19:51 | 7.52974 | 94.38841 | 38813 ft | 471 kts | 114° |
| 2026-05-07 19:51 | 7.50245 | 94.44846 | 38810 ft | 471 kts | 115° |
| 2026-05-07 19:52 | 7.47377 | 94.50720 | 38824 ft | 470 kts | 116° |
| 2026-05-07 19:52 | 7.44464 | 94.56623 | 38825 ft | 470 kts | 116° |
| 2026-05-07 19:53 | 7.41576 | 94.62524 | 38821 ft | 469 kts | 116° |
| 2026-05-07 19:53 | 7.38703 | 94.68426 | 38820 ft | 469 kts | 116° |
| 2026-05-07 19:54 | 7.35835 | 94.74325 | 38810 ft | 469 kts | 116° |
| 2026-05-07 19:54 | 7.32968 | 94.80217 | 38811 ft | 468 kts | 116° |
| 2026-05-07 19:55 | 7.30099 | 94.86109 | 38823 ft | 468 kts | 116° |
| 2026-05-07 19:55 | 7.27230 | 94.91997 | 38823 ft | 468 kts | 116° |
| 2026-05-07 19:56 | 7.24361 | 94.97884 | 38811 ft | 468 kts | 115° |
| 2026-05-07 19:56 | 7.21489 | 95.03775 | 38812 ft | 468 kts | 115° |
| 2026-05-07 19:57 | 7.18617 | 95.09663 | 38815 ft | 468 kts | 116° |
| 2026-05-07 19:57 | 7.15767 | 95.15506 | 38817 ft | 468 kts | 116° |
| 2026-05-07 19:58 | 7.12898 | 95.21384 | 38817 ft | 468 kts | 116° |
| 2026-05-07 19:58 | 7.10029 | 95.27258 | 38814 ft | 467 kts | 116° |
| 2026-05-07 19:59 | 7.07163 | 95.33126 | 38830 ft | 467 kts | 116° |
| 2026-05-07 19:59 | 7.04295 | 95.38994 | 38812 ft | 467 kts | 116° |
| 2026-05-07 20:00 | 7.01427 | 95.44860 | 38812 ft | 467 kts | 116° |
| 2026-05-07 20:00 | 6.98556 | 95.50732 | 38826 ft | 468 kts | 116° |
| 2026-05-07 20:01 | 6.95682 | 95.56606 | 38825 ft | 468 kts | 116° |
| 2026-05-07 20:01 | 6.92807 | 95.62482 | 38816 ft | 468 kts | 116° |
| 2026-05-07 20:02 | 6.89948 | 95.68322 | 38812 ft | 468 kts | 116° |
| 2026-05-07 20:02 | 6.87066 | 95.74204 | 38827 ft | 469 kts | 115° |
| 2026-05-07 20:03 | 6.84186 | 95.80084 | 38830 ft | 469 kts | 115° |
| 2026-05-07 20:03 | 6.81303 | 95.85966 | 38812 ft | 469 kts | 115° |
| 2026-05-07 20:04 | 6.78418 | 95.91851 | 38811 ft | 469 kts | 115° |
| 2026-05-07 20:04 | 6.75534 | 95.97733 | 38814 ft | 469 kts | 115° |
| 2026-05-07 20:05 | 6.72651 | 96.03624 | 38817 ft | 469 kts | 115° |
| 2026-05-07 20:05 | 6.69791 | 96.09478 | 38815 ft | 469 kts | 115° |
| 2026-05-07 20:06 | 6.66911 | 96.15368 | 38815 ft | 469 kts | 115° |
| 2026-05-07 20:06 | 6.64027 | 96.21265 | 38815 ft | 469 kts | 115° |
| 2026-05-07 20:07 | 6.61145 | 96.27154 | 38818 ft | 469 kts | 115° |
| 2026-05-07 20:07 | 6.58262 | 96.33045 | 38816 ft | 469 kts | 115° |
| 2026-05-07 20:08 | 6.55380 | 96.38932 | 38812 ft | 469 kts | 115° |
| 2026-05-07 20:08 | 6.52496 | 96.44821 | 38813 ft | 469 kts | 115° |
| 2026-05-07 20:09 | 6.49843 | 96.50803 | 38811 ft | 468 kts | 107° |
| 2026-05-07 20:10 | 6.47113 | 96.60171 | 38815 ft | 468 kts | 105° |
| 2026-05-07 20:10 | 6.45302 | 96.66468 | 38818 ft | 469 kts | 105° |
| 2026-05-07 20:11 | 6.43467 | 96.72759 | 38813 ft | 469 kts | 105° |
| 2026-05-07 20:11 | 6.41618 | 96.79056 | 38818 ft | 470 kts | 105° |
| 2026-05-07 20:12 | 6.39764 | 96.85364 | 38812 ft | 471 kts | 105° |
| 2026-05-07 20:12 | 6.37910 | 96.91677 | 38811 ft | 471 kts | 105° |
| 2026-05-07 20:13 | 6.36051 | 96.98001 | 38818 ft | 471 kts | 105° |
| 2026-05-07 20:13 | 6.34194 | 97.04319 | 38814 ft | 472 kts | 105° |
| 2026-05-07 20:14 | 6.32334 | 97.10641 | 38820 ft | 471 kts | 105° |
| 2026-05-07 20:14 | 6.30476 | 97.16957 | 38816 ft | 471 kts | 105° |
| 2026-05-07 20:15 | 6.28630 | 97.23227 | 38814 ft | 471 kts | 105° |
| 2026-05-07 20:15 | 6.26772 | 97.29532 | 38817 ft | 470 kts | 105° |
| 2026-05-07 20:16 | 6.24915 | 97.35836 | 38814 ft | 470 kts | 105° |
| 2026-05-07 20:16 | 6.23058 | 97.42136 | 38813 ft | 470 kts | 105° |
| 2026-05-07 20:17 | 6.21201 | 97.48430 | 38812 ft | 470 kts | 105° |
| 2026-05-07 20:17 | 6.19295 | 97.54712 | 38810 ft | 470 kts | 109° |
| 2026-05-07 20:18 | 6.16301 | 97.60558 | 38829 ft | 472 kts | 122° |
| 2026-05-07 20:18 | 6.12214 | 97.65731 | 38831 ft | 473 kts | 129° |
| 2026-05-07 20:19 | 6.07882 | 97.70661 | 38825 ft | 474 kts | 130° |
| 2026-05-07 20:19 | 6.03525 | 97.75634 | 38809 ft | 474 kts | 129° |
| 2026-05-07 20:20 | 5.99197 | 97.80626 | 38810 ft | 474 kts | 129° |
| 2026-05-07 20:20 | 5.94882 | 97.85627 | 38811 ft | 473 kts | 129° |
| 2026-05-07 20:21 | 5.90579 | 97.90617 | 38812 ft | 472 kts | 129° |
| 2026-05-07 20:21 | 5.87002 | 97.94763 | 38813 ft | 472 kts | 129° |
| 2026-05-07 20:22 | 5.82704 | 97.99742 | 38806 ft | 472 kts | 130° |
| 2026-05-07 20:22 | 5.77693 | 98.05544 | 38815 ft | 474 kts | 130° |
| 2026-05-07 20:23 | 5.74069 | 98.09739 | 38829 ft | 475 kts | 130° |
| 2026-05-07 20:23 | 5.69755 | 98.14732 | 38816 ft | 477 kts | 130° |
| 2026-05-07 20:24 | 5.65401 | 98.19769 | 38811 ft | 478 kts | 130° |
| 2026-05-07 20:24 | 5.61039 | 98.24814 | 38812 ft | 478 kts | 130° |
| 2026-05-07 20:25 | 5.56686 | 98.29849 | 38814 ft | 477 kts | 130° |
| 2026-05-07 20:25 | 5.52344 | 98.34869 | 38818 ft | 475 kts | 129° |
| 2026-05-07 20:26 | 5.48020 | 98.39867 | 38818 ft | 473 kts | 129° |
| 2026-05-07 20:26 | 5.43712 | 98.44844 | 38816 ft | 471 kts | 129° |
| 2026-05-07 20:27 | 5.39417 | 98.49807 | 38818 ft | 470 kts | 129° |
| 2026-05-07 20:27 | 5.35133 | 98.54756 | 38818 ft | 470 kts | 129° |
| 2026-05-07 20:28 | 5.30878 | 98.59670 | 38820 ft | 469 kts | 129° |
| 2026-05-07 20:28 | 5.26594 | 98.64616 | 38821 ft | 470 kts | 129° |
| 2026-05-07 20:29 | 5.22305 | 98.69566 | 38823 ft | 470 kts | 129° |
| 2026-05-07 20:29 | 5.18007 | 98.74526 | 38824 ft | 471 kts | 129° |
| 2026-05-07 20:30 | 5.13710 | 98.79483 | 38821 ft | 471 kts | 129° |
| 2026-05-07 20:30 | 5.09413 | 98.84440 | 38823 ft | 471 kts | 129° |
| 2026-05-07 20:31 | 5.05117 | 98.89395 | 38819 ft | 470 kts | 129° |
| 2026-05-07 20:31 | 5.00827 | 98.94341 | 38819 ft | 470 kts | 129° |
| 2026-05-07 20:32 | 4.96566 | 98.99253 | 38818 ft | 470 kts | 129° |
| 2026-05-07 20:32 | 4.92283 | 99.04189 | 38819 ft | 469 kts | 129° |
| 2026-05-07 20:33 | 4.87997 | 99.09127 | 38816 ft | 469 kts | 129° |
| 2026-05-07 20:33 | 4.83706 | 99.14071 | 38819 ft | 470 kts | 130° |
| 2026-05-07 20:34 | 4.79409 | 99.19020 | 38825 ft | 471 kts | 130° |
| 2026-05-07 20:34 | 4.75097 | 99.23985 | 38826 ft | 472 kts | 130° |
| 2026-05-07 20:35 | 4.70776 | 99.28960 | 38826 ft | 473 kts | 130° |
| 2026-05-07 20:35 | 4.66450 | 99.33940 | 38825 ft | 474 kts | 130° |
| 2026-05-07 20:36 | 4.62115 | 99.38929 | 38824 ft | 474 kts | 130° |
| 2026-05-07 20:36 | 4.57783 | 99.43915 | 38823 ft | 474 kts | 130° |
| 2026-05-07 20:37 | 4.53476 | 99.48870 | 38821 ft | 474 kts | 130° |
| 2026-05-07 20:37 | 4.49148 | 99.53855 | 38830 ft | 474 kts | 129° |
| 2026-05-07 20:38 | 4.44986 | 99.58971 | 38826 ft | 473 kts | 127° |
| 2026-05-07 20:38 | 4.40915 | 99.64145 | 38826 ft | 472 kts | 127° |
| 2026-05-07 20:39 | 4.36835 | 99.69300 | 38826 ft | 472 kts | 127° |
| 2026-05-07 20:39 | 4.32736 | 99.74438 | 38827 ft | 472 kts | 128° |
| 2026-05-07 20:40 | 4.28636 | 99.79560 | 38827 ft | 471 kts | 128° |
| 2026-05-07 20:40 | 4.24534 | 99.84682 | 38826 ft | 471 kts | 128° |
| 2026-05-07 20:41 | 4.20462 | 99.89770 | 38830 ft | 471 kts | 128° |
| 2026-05-07 20:41 | 4.16360 | 99.94893 | 38831 ft | 471 kts | 128° |
| 2026-05-07 20:42 | 4.12257 | 100.00018 | 38827 ft | 472 kts | 128° |
| 2026-05-07 20:42 | 4.08152 | 100.05144 | 38828 ft | 472 kts | 128° |
| 2026-05-07 20:43 | 4.04042 | 100.10276 | 38830 ft | 472 kts | 128° |
| 2026-05-07 20:43 | 3.99929 | 100.15409 | 38827 ft | 472 kts | 128° |
| 2026-05-07 20:44 | 3.95816 | 100.20542 | 38822 ft | 473 kts | 128° |
| 2026-05-07 20:44 | 3.91705 | 100.25672 | 38825 ft | 472 kts | 128° |
| 2026-05-07 20:45 | 3.87595 | 100.30800 | 38826 ft | 472 kts | 128° |
| 2026-05-07 20:45 | 3.83486 | 100.35924 | 38829 ft | 472 kts | 128° |
| 2026-05-07 20:46 | 3.79410 | 100.41009 | 38830 ft | 471 kts | 128° |
| 2026-05-07 20:46 | 3.75306 | 100.46125 | 38823 ft | 471 kts | 128° |
| 2026-05-07 20:47 | 3.71201 | 100.51244 | 38826 ft | 472 kts | 128° |
| 2026-05-07 20:47 | 3.67091 | 100.56367 | 38831 ft | 472 kts | 128° |
| 2026-05-07 20:48 | 3.62973 | 100.61499 | 38830 ft | 473 kts | 128° |
| 2026-05-07 20:48 | 3.58849 | 100.66639 | 38829 ft | 474 kts | 128° |
| 2026-05-07 20:49 | 3.54720 | 100.71783 | 38832 ft | 474 kts | 128° |
| 2026-05-07 20:49 | 3.50590 | 100.76928 | 38826 ft | 474 kts | 128° |
| 2026-05-07 20:50 | 3.46459 | 100.82074 | 38827 ft | 474 kts | 128° |
| 2026-05-07 20:50 | 3.42327 | 100.87222 | 38829 ft | 474 kts | 128° |
| 2026-05-07 20:51 | 3.38222 | 100.92333 | 38826 ft | 474 kts | 128° |
| 2026-05-07 20:51 | 3.34093 | 100.97475 | 38824 ft | 474 kts | 128° |
| 2026-05-07 20:52 | 3.29962 | 101.02624 | 38824 ft | 475 kts | 128° |
| 2026-05-07 20:52 | 3.25829 | 101.07777 | 38838 ft | 475 kts | 128° |
| 2026-05-07 20:53 | 3.21690 | 101.12937 | 38843 ft | 475 kts | 128° |
| 2026-05-07 20:53 | 3.17548 | 101.18099 | 38831 ft | 476 kts | 128° |
| 2026-05-07 20:54 | 3.13403 | 101.23261 | 38826 ft | 476 kts | 128° |
| 2026-05-07 20:54 | 3.09259 | 101.28374 | 38838 ft | 476 kts | 128° |
| 2026-05-07 20:55 | 3.05078 | 101.33520 | 38820 ft | 477 kts | 129° |
| 2026-05-07 20:55 | 3.00893 | 101.38677 | 38838 ft | 477 kts | 128° |
| 2026-05-07 20:56 | 2.96707 | 101.43838 | 38822 ft | 478 kts | 128° |
| 2026-05-07 20:56 | 2.92510 | 101.49012 | 38818 ft | 479 kts | 128° |
| 2026-05-07 20:57 | 2.88309 | 101.54192 | 38819 ft | 480 kts | 128° |
| 2026-05-07 20:57 | 2.84098 | 101.59383 | 38824 ft | 480 kts | 128° |
| 2026-05-07 20:58 | 2.79887 | 101.64573 | 38799 ft | 481 kts | 128° |
| 2026-05-07 20:58 | 2.75703 | 101.69727 | 38799 ft | 480 kts | 129° |
| 2026-05-07 20:59 | 2.70967 | 101.74423 | 38805 ft | 480 kts | 140° |
| 2026-05-07 20:59 | 2.65499 | 101.78235 | 38816 ft | 479 kts | 148° |
| 2026-05-07 21:00 | 2.59821 | 101.81721 | 38796 ft | 479 kts | 148° |
| 2026-05-07 21:00 | 2.54157 | 101.85219 | 38798 ft | 478 kts | 147° |
| 2026-05-07 21:01 | 2.48519 | 101.88741 | 38809 ft | 477 kts | 147° |
| 2026-05-07 21:01 | 2.42895 | 101.92265 | 38809 ft | 477 kts | 147° |
| 2026-05-07 21:02 | 2.37276 | 101.95783 | 38815 ft | 477 kts | 147° |
| 2026-05-07 21:02 | 2.31693 | 101.99277 | 38817 ft | 476 kts | 147° |
| 2026-05-07 21:03 | 2.26035 | 102.02739 | 38816 ft | 477 kts | 149° |
| 2026-05-07 21:03 | 2.20357 | 102.06163 | 38818 ft | 476 kts | 144° |
| 2026-05-07 21:04 | 2.15627 | 102.10744 | 38837 ft | 475 kts | 127° |
| 2026-05-07 21:04 | 2.12271 | 102.16418 | 38839 ft | 475 kts | 117° |
| 2026-05-07 21:05 | 2.09272 | 102.22313 | 38838 ft | 476 kts | 117° |
| 2026-05-07 21:05 | 2.06220 | 102.28196 | 38824 ft | 477 kts | 117° |
| 2026-05-07 21:06 | 2.03127 | 102.34066 | 38824 ft | 478 kts | 118° |
| 2026-05-07 21:06 | 2.00028 | 102.39939 | 38842 ft | 478 kts | 118° |
| 2026-05-07 21:07 | 1.96921 | 102.45822 | 38826 ft | 479 kts | 118° |
| 2026-05-07 21:07 | 1.93800 | 102.51654 | 38837 ft | 480 kts | 118° |
| 2026-05-07 21:08 | 1.90644 | 102.57536 | 38839 ft | 480 kts | 118° |
| 2026-05-07 21:08 | 1.87487 | 102.63431 | 38837 ft | 481 kts | 118° |
| 2026-05-07 21:09 | 1.84331 | 102.69331 | 38829 ft | 481 kts | 118° |
| 2026-05-07 21:09 | 1.81175 | 102.75229 | 38831 ft | 481 kts | 118° |
| 2026-05-07 21:10 | 1.78021 | 102.81125 | 38817 ft | 481 kts | 118° |
| 2026-05-07 21:10 | 1.74869 | 102.87013 | 38832 ft | 481 kts | 118° |
| 2026-05-07 21:11 | 1.71716 | 102.92904 | 38834 ft | 480 kts | 118° |
| 2026-05-07 21:11 | 1.67007 | 103.01707 | 38546 ft | 486 kts | 118° |
| 2026-05-07 21:12 | 1.65401 | 103.04708 | 37851 ft | 490 kts | 118° |
| 2026-05-07 21:12 | 1.63778 | 103.07687 | 37139 ft | 487 kts | 122° |
| 2026-05-07 21:12 | 1.61723 | 103.10368 | 36369 ft | 487 kts | 134° |
| 2026-05-07 21:12 | 1.59157 | 103.12581 | 35533 ft | 489 kts | 144° |
| 2026-05-07 21:13 | 1.56215 | 103.14305 | 34577 ft | 493 kts | 155° |
| 2026-05-07 21:13 | 1.53012 | 103.15577 | 33592 ft | 498 kts | 158° |
| 2026-05-07 21:13 | 1.49752 | 103.16802 | 32472 ft | 503 kts | 158° |
| 2026-05-07 21:13 | 1.46466 | 103.18043 | 31402 ft | 506 kts | 158° |
| 2026-05-07 21:14 | 1.43167 | 103.19317 | 30360 ft | 510 kts | 157° |
| 2026-05-07 21:14 | 1.39879 | 103.20613 | 29548 ft | 506 kts | 157° |
| 2026-05-07 21:14 | 1.36624 | 103.21912 | 28700 ft | 502 kts | 156° |
| 2026-05-07 21:14 | 1.33401 | 103.23203 | 27932 ft | 497 kts | 156° |
| 2026-05-07 21:15 | 1.30209 | 103.24481 | 27203 ft | 492 kts | 156° |
| 2026-05-07 21:15 | 1.27047 | 103.25743 | 26488 ft | 488 kts | 156° |
| 2026-05-07 21:15 | 1.23926 | 103.27029 | 25776 ft | 483 kts | 153° |
| 2026-05-07 21:15 | 1.21002 | 103.28570 | 25561 ft | 467 kts | 148° |
| 2026-05-07 21:16 | 1.18258 | 103.30210 | 25333 ft | 453 kts | 147° |
| 2026-05-07 21:16 | 1.15614 | 103.31837 | 25121 ft | 440 kts | 146° |
| 2026-05-07 21:16 | 1.13028 | 103.33406 | 24935 ft | 429 kts | 147° |
| 2026-05-07 21:16 | 1.10495 | 103.34904 | 24747 ft | 418 kts | 147° |
| 2026-05-07 21:17 | 1.08043 | 103.36329 | 24579 ft | 408 kts | 148° |
| 2026-05-07 21:17 | 1.05610 | 103.37731 | 24412 ft | 399 kts | 148° |
| 2026-05-07 21:17 | 1.03229 | 103.39103 | 24249 ft | 391 kts | 148° |
| 2026-05-07 21:17 | 1.00904 | 103.40452 | 24088 ft | 379 kts | 145° |
| 2026-05-07 21:18 | 0.98983 | 103.42156 | 23920 ft | 364 kts | 124° |
| 2026-05-07 21:18 | 0.97760 | 103.44328 | 23693 ft | 356 kts | 110° |
| 2026-05-07 21:18 | 0.97151 | 103.46640 | 23373 ft | 335 kts | 95° |
| 2026-05-07 21:18 | 0.96985 | 103.48896 | 22902 ft | 319 kts | 93° |
| 2026-05-07 21:19 | 0.96855 | 103.51067 | 22462 ft | 305 kts | 93° |
| 2026-05-07 21:19 | 0.96710 | 103.53146 | 22119 ft | 298 kts | 94° |
| 2026-05-07 21:19 | 0.96552 | 103.55210 | 21774 ft | 298 kts | 94° |
| 2026-05-07 21:19 | 0.96425 | 103.57274 | 21419 ft | 297 kts | 88° |
| 2026-05-07 21:20 | 0.96616 | 103.59318 | 21087 ft | 296 kts | 82° |
| 2026-05-07 21:20 | 0.96943 | 103.61346 | 20756 ft | 296 kts | 81° |
| 2026-05-07 21:20 | 0.97276 | 103.63374 | 20413 ft | 296 kts | 81° |
| 2026-05-07 21:20 | 0.97586 | 103.65406 | 20079 ft | 296 kts | 82° |
| 2026-05-07 21:21 | 0.97880 | 103.67445 | 19744 ft | 297 kts | 82° |
| 2026-05-07 21:21 | 0.98168 | 103.69496 | 19398 ft | 299 kts | 82° |
| 2026-05-07 21:21 | 0.98455 | 103.71553 | 19045 ft | 300 kts | 82° |
| 2026-05-07 21:21 | 0.98744 | 103.73625 | 18703 ft | 302 kts | 82° |
| 2026-05-07 21:22 | 0.99031 | 103.75683 | 18349 ft | 304 kts | 82° |
| 2026-05-07 21:22 | 0.99328 | 103.77807 | 18033 ft | 304 kts | 82° |
| 2026-05-07 21:22 | 0.99617 | 103.79875 | 17688 ft | 304 kts | 82° |
| 2026-05-07 21:22 | 0.99908 | 103.81960 | 17390 ft | 302 kts | 82° |
| 2026-05-07 21:23 | 1.00191 | 103.83989 | 17005 ft | 288 kts | 82° |
| 2026-05-07 21:23 | 1.00452 | 103.85931 | 16549 ft | 274 kts | 83° |
| 2026-05-07 21:23 | 1.00691 | 103.87764 | 16221 ft | 258 kts | 83° |
| 2026-05-07 21:23 | 1.00923 | 103.89536 | 15946 ft | 261 kts | 83° |
| 2026-05-07 21:24 | 1.01165 | 103.91385 | 15674 ft | 271 kts | 83° |
| 2026-05-07 21:24 | 1.01407 | 103.93222 | 15313 ft | 261 kts | 83° |
| 2026-05-07 21:24 | 1.01639 | 103.94990 | 15022 ft | 256 kts | 83° |
| 2026-05-07 21:24 | 1.01803 | 103.96166 | 14837 ft | 262 kts | 79° |
| 2026-05-07 21:25 | 1.02509 | 103.97858 | 14535 ft | 270 kts | 55° |
| 2026-05-07 21:25 | 1.03638 | 103.99380 | 14223 ft | 273 kts | 54° |
| 2026-05-07 21:25 | 1.05107 | 104.01380 | 13792 ft | 264 kts | 55° |
| 2026-05-07 21:25 | 1.06168 | 104.02836 | 13462 ft | 255 kts | 55° |
| 2026-05-07 21:26 | 1.07199 | 104.04255 | 13154 ft | 254 kts | 55° |
| 2026-05-07 21:26 | 1.07907 | 104.05232 | 12968 ft | 260 kts | 55° |
| 2026-05-07 21:26 | 1.08983 | 104.06721 | 12660 ft | 267 kts | 55° |
| 2026-05-07 21:26 | 1.10068 | 104.08223 | 12334 ft | 264 kts | 55° |
| 2026-05-07 21:27 | 1.11102 | 104.09655 | 12126 ft | 252 kts | 55° |
| 2026-05-07 21:27 | 1.12123 | 104.11069 | 11864 ft | 253 kts | 55° |
| 2026-05-07 21:27 | 1.13176 | 104.12521 | 11612 ft | 262 kts | 52° |
| 2026-05-07 21:27 | 1.14560 | 104.13674 | 11276 ft | 261 kts | 25° |
| 2026-05-07 21:28 | 1.16242 | 104.14372 | 11023 ft | 265 kts | 23° |
| 2026-05-07 21:28 | 1.17959 | 104.15089 | 10704 ft | 268 kts | 24° |
| 2026-05-07 21:28 | 1.19681 | 104.15815 | 10384 ft | 269 kts | 23° |
| 2026-05-07 21:28 | 1.21400 | 104.16542 | 10070 ft | 268 kts | 23° |
| 2026-05-07 21:29 | 1.23119 | 104.17270 | 9754 ft | 268 kts | 23° |
| 2026-05-07 21:29 | 1.24836 | 104.18000 | 9410 ft | 268 kts | 23° |
| 2026-05-07 21:29 | 1.26553 | 104.18731 | 9086 ft | 268 kts | 23° |
| 2026-05-07 21:29 | 1.28265 | 104.19460 | 8767 ft | 267 kts | 23° |
| 2026-05-07 21:30 | 1.29974 | 104.20189 | 8442 ft | 267 kts | 23° |
| 2026-05-07 21:30 | 1.31677 | 104.20912 | 8135 ft | 264 kts | 21° |
| 2026-05-07 21:30 | 1.33422 | 104.21215 | 7786 ft | 258 kts | 352° |
| 2026-05-07 21:30 | 1.35171 | 104.20855 | 7485 ft | 252 kts | 346° |
| 2026-05-07 21:31 | 1.36866 | 104.20482 | 7187 ft | 252 kts | 347° |
| 2026-05-07 21:31 | 1.38580 | 104.20113 | 6887 ft | 252 kts | 347° |
| 2026-05-07 21:31 | 1.40293 | 104.19743 | 6593 ft | 252 kts | 347° |
| 2026-05-07 21:31 | 1.42003 | 104.19374 | 6296 ft | 252 kts | 347° |
| 2026-05-07 21:32 | 1.43712 | 104.19006 | 5984 ft | 252 kts | 347° |
| 2026-05-07 21:32 | 1.45418 | 104.18640 | 5717 ft | 249 kts | 347° |
| 2026-05-07 21:32 | 1.47063 | 104.18287 | 5595 ft | 232 kts | 347° |
| 2026-05-07 21:32 | 1.48600 | 104.17959 | 5327 ft | 221 kts | 347° |
| 2026-05-07 21:33 | 1.50080 | 104.17624 | 5034 ft | 214 kts | 339° |
| 2026-05-07 21:33 | 1.51248 | 104.16827 | 4763 ft | 199 kts | 301° |
| 2026-05-07 21:33 | 1.51723 | 104.15557 | 4607 ft | 198 kts | 276° |
| 2026-05-07 21:33 | 1.51667 | 104.14171 | 4354 ft | 201 kts | 258° |
| 2026-05-07 21:34 | 1.51363 | 104.12815 | 4101 ft | 199 kts | 256° |
| 2026-05-07 21:34 | 1.51048 | 104.11486 | 3843 ft | 195 kts | 256° |
| 2026-05-07 21:34 | 1.50741 | 104.10168 | 3626 ft | 196 kts | 256° |
| 2026-05-07 21:34 | 1.50435 | 104.08835 | 3399 ft | 197 kts | 256° |
| 2026-05-07 21:35 | 1.50133 | 104.07501 | 3156 ft | 197 kts | 256° |
| 2026-05-07 21:35 | 1.49832 | 104.06166 | 2963 ft | 195 kts | 256° |
| 2026-05-07 21:35 | 1.49494 | 104.04880 | 2693 ft | 187 kts | 244° |
| 2026-05-07 21:35 | 1.48641 | 104.03988 | 2412 ft | 173 kts | 209° |
| 2026-05-07 21:36 | 1.47635 | 104.03433 | 2183 ft | 163 kts | 210° |
| 2026-05-07 21:36 | 1.46694 | 104.02899 | 1975 ft | 148 kts | 207° |
| 2026-05-07 21:36 | 1.45817 | 104.02479 | 1786 ft | 135 kts | 204° |
| 2026-05-07 21:36 | 1.44962 | 104.02100 | 1628 ft | 133 kts | 203° |
| 2026-05-07 21:37 | 1.44124 | 104.01736 | 1575 ft | 133 kts | 202° |
| 2026-05-07 21:37 | 1.43276 | 104.01312 | 1379 ft | 137 kts | 204° |
| 2026-05-07 21:37 | 1.42411 | 104.00936 | 1070 ft | 134 kts | 201° |
| 2026-05-07 21:37 | 1.41562 | 104.00593 | 864 ft | 130 kts | 202° |
| 2026-05-07 21:38 | 1.40724 | 104.00233 | 667 ft | 132 kts | 203° |
| 2026-05-07 21:38 | 1.39873 | 103.99869 | 468 ft | 134 kts | 203° |
| 2026-05-07 21:38 | 1.39018 | 103.99501 | 358 ft | 134 kts | 203° |
| 2026-05-07 21:38 | 1.38150 | 103.99130 | 162 ft | 136 kts | 200° |
| 2026-05-07 21:39 | 1.37282 | 103.98762 | 38 ft | 133 kts | 202° |
| 2026-05-07 21:39 | 1.36629 | 103.98480 | 35 ft | 71 kts | 203° |
| 2026-05-07 21:39 | 1.36289 | 103.98335 | 35 ft | 34 kts | 203° |
| 2026-05-07 21:39 | 1.36104 | 103.98282 | 35 ft | 27 kts | 186° |
| 2026-05-07 21:40 | 1.35959 | 103.98284 | 35 ft | 12 kts | 176° |
| 2026-05-07 21:40 | 1.35877 | 103.98295 | 35 ft | 12 kts | 172° |
| 2026-05-07 21:40 | 1.35797 | 103.98305 | 35 ft | 12 kts | 174° |
| 2026-05-07 21:40 | 1.35720 | 103.98334 | 35 ft | 12 kts | 136° |
| 2026-05-07 21:41 | 1.35641 | 103.98355 | 35 ft | 13 kts | 188° |
| 2026-05-07 21:41 | 1.35559 | 103.98318 | 35 ft | 13 kts | 204° |
| 2026-05-07 21:41 | 1.35475 | 103.98284 | 35 ft | 13 kts | 192° |
| 2026-05-07 21:41 | 1.35385 | 103.98296 | 35 ft | 13 kts | 165° |
| 2026-05-07 21:42 | 1.35302 | 103.98303 | 35 ft | 12 kts | 197° |
| 2026-05-07 21:42 | 1.35234 | 103.98339 | 35 ft | 12 kts | 114° |
| 2026-05-07 21:42 | 1.35224 | 103.98362 | 35 ft | 2 kts | 113° |
| 2026-05-07 21:42 | 1.35220 | 103.98371 | 35 ft | 0 kts | 113° |